sensor_id;sensor_type;location;lat;lon;timestamp;pressure;altitude;pressure_sealevel;temperature;humidity
54262;BME280;40174;52.364;6.452;2023-04-27T00:01:57;101866.72;;;1.09;nan
54262;BME280;40174;52.364;6.452;2023-04-27T00:04:23;101852.03;;;1.05;nan
54262;BME280;40174;52.364;6.452;2023-04-27T00:06:51;101854.72;;;1.03;nan
54262;BME280;40174;52.364;6.452;2023-04-27T00:09:18;101862.53;;;1.03;nan
54262;BME280;40174;52.364;6.452;2023-04-27T00:11:44;101859.09;;;1.01;nan
54262;BME280;40174;52.364;6.452;2023-04-27T00:14:11;101855.66;;;0.99;nan
54262;BME280;40174;52.364;6.452;2023-04-27T00:16:38;101863.50;;;0.98;nan
54262;BME280;40174;52.364;6.452;2023-04-27T00:19:04;101865.41;;;0.91;nan
54262;BME280;40174;52.364;6.452;2023-04-27T00:21:31;101861.00;;;0.93;nan
54262;BME280;40174;52.364;6.452;2023-04-27T00:23:59;101862.78;;;0.91;nan
54262;BME280;40174;52.364;6.452;2023-04-27T00:26:26;101862.78;;;0.93;nan
54262;BME280;40174;52.364;6.452;2023-04-27T00:28:54;101869.03;;;0.84;nan
54262;BME280;40174;52.364;6.452;2023-04-27T00:31:23;101862.22;;;0.78;nan
54262;BME280;40174;52.364;6.452;2023-04-27T00:33:49;101876.25;;;0.73;nan
54262;BME280;40174;52.364;6.452;2023-04-27T00:36:16;101874.56;;;0.70;nan
54262;BME280;40174;52.364;6.452;2023-04-27T00:38:42;101872.84;;;0.69;nan
54262;BME280;40174;52.364;6.452;2023-04-27T00:41:10;101874.50;;;0.72;nan
54262;BME280;40174;52.364;6.452;2023-04-27T00:43:41;101881.47;;;0.71;nan
54262;BME280;40174;52.364;6.452;2023-04-27T00:46:08;101866.03;;;0.64;nan
54262;BME280;40174;52.364;6.452;2023-04-27T00:48:35;101866.97;;;0.61;nan
54262;BME280;40174;52.364;6.452;2023-04-27T00:51:02;101871.22;;;0.65;nan
54262;BME280;40174;52.364;6.452;2023-04-27T00:53:30;101873.88;;;0.62;nan
54262;BME280;40174;52.364;6.452;2023-04-27T00:55:57;101869.69;;;0.56;nan
54262;BME280;40174;52.364;6.452;2023-04-27T00:58:25;101873.13;;;0.57;nan
54262;BME280;40174;52.364;6.452;2023-04-27T01:00:52;101867.00;;;0.58;nan
54262;BME280;40174;52.364;6.452;2023-04-27T01:03:18;101884.47;;;0.53;nan
54262;BME280;40174;52.364;6.452;2023-04-27T01:05:45;101873.28;;;0.49;nan
54262;BME280;40174;52.364;6.452;2023-04-27T01:08:13;101868.28;;;0.40;nan
54262;BME280;40174;52.364;6.452;2023-04-27T01:10:39;101871.06;;;0.32;nan
54262;BME280;40174;52.364;6.452;2023-04-27T01:13:09;101867.53;;;0.33;nan
54262;BME280;40174;52.364;6.452;2023-04-27T01:15:37;101869.41;;;0.28;nan
54262;BME280;40174;52.364;6.452;2023-04-27T01:18:08;101871.16;;;0.28;nan
54262;BME280;40174;52.364;6.452;2023-04-27T01:20:34;101864.31;;;0.22;nan
54262;BME280;40174;52.364;6.452;2023-04-27T01:23:03;101866.97;;;0.19;nan
54262;BME280;40174;52.364;6.452;2023-04-27T01:25:30;101871.34;;;0.18;nan
54262;BME280;40174;52.364;6.452;2023-04-27T01:28:01;101880.16;;;0.11;nan
54262;BME280;40174;52.364;6.452;2023-04-27T01:30:29;101870.59;;;0.12;nan
54262;BME280;40174;52.364;6.452;2023-04-27T01:32:57;101876.66;;;0.11;nan
54262;BME280;40174;52.364;6.452;2023-04-27T01:35:24;101868.03;;;0.09;nan
54262;BME280;40174;52.364;6.452;2023-04-27T01:37:50;101875.91;;;0.06;nan
54262;BME280;40174;52.364;6.452;2023-04-27T01:40:17;101870.72;;;0.06;nan
54262;BME280;40174;52.364;6.452;2023-04-27T01:42:45;101869.03;;;0.05;nan
54262;BME280;40174;52.364;6.452;2023-04-27T01:45:12;101862.19;;;-0.01;nan
54262;BME280;40174;52.364;6.452;2023-04-27T01:47:38;101874.38;;;-0.05;nan
54262;BME280;40174;52.364;6.452;2023-04-27T01:50:06;101871.00;;;-0.08;nan
54262;BME280;40174;52.364;6.452;2023-04-27T01:52:33;101869.31;;;-0.11;nan
54262;BME280;40174;52.364;6.452;2023-04-27T01:55:01;101878.88;;;-0.13;nan
54262;BME280;40174;52.364;6.452;2023-04-27T01:57:28;101881.44;;;-0.11;nan
54262;BME280;40174;52.364;6.452;2023-04-27T01:59:56;101881.50;;;-0.14;nan
54262;BME280;40174;52.364;6.452;2023-04-27T02:02:23;101882.31;;;-0.12;nan
54262;BME280;40174;52.364;6.452;2023-04-27T02:04:50;101891.03;;;-0.13;nan
54262;BME280;40174;52.364;6.452;2023-04-27T02:07:18;101882.41;;;-0.17;nan
54262;BME280;40174;52.364;6.452;2023-04-27T02:09:44;101883.25;;;-0.15;nan
54262;BME280;40174;52.364;6.452;2023-04-27T02:12:12;101885.84;;;-0.15;nan
54262;BME280;40174;52.364;6.452;2023-04-27T02:14:39;101883.38;;;-0.23;nan
54262;BME280;40174;52.364;6.452;2023-04-27T02:17:07;101880.81;;;-0.24;nan
54262;BME280;40174;52.364;6.452;2023-04-27T02:19:33;101876.56;;;-0.28;nan
54262;BME280;40174;52.364;6.452;2023-04-27T02:22:00;101868.78;;;-0.28;75.09
54262;BME280;40174;52.364;6.452;2023-04-27T02:24:27;101868.78;;;-0.28;nan
54262;BME280;40174;52.364;6.452;2023-04-27T02:26:54;101880.94;;;-0.32;nan
54262;BME280;40174;52.364;6.452;2023-04-27T02:29:21;101880.94;;;-146.30;nan
54262;BME280;40174;52.364;6.452;2023-04-27T02:31:47;101882.84;;;-0.40;nan
54262;BME280;40174;52.364;6.452;2023-04-27T02:34:15;101882.84;;;-0.40;nan
54262;BME280;40174;52.364;6.452;2023-04-27T02:36:42;101869.97;;;-0.46;nan
54262;BME280;40174;52.364;6.452;2023-04-27T02:39:08;101877.81;;;-0.49;nan
54262;BME280;40174;52.364;6.452;2023-04-27T02:41:37;101871.72;;;-0.47;nan
54262;BME280;40174;52.364;6.452;2023-04-27T02:44:03;101877.78;;;-0.48;nan
54262;BME280;40174;52.364;6.452;2023-04-27T02:46:30;101881.28;;;-0.50;nan
54262;BME280;40174;52.364;6.452;2023-04-27T02:48:57;101868.38;;;-0.53;nan
54262;BME280;40174;52.364;6.452;2023-04-27T02:51:25;101867.53;;;-0.55;nan
54262;BME280;40174;52.364;6.452;2023-04-27T02:53:52;101862.31;;;-0.54;nan
54262;BME280;40174;52.364;6.452;2023-04-27T02:56:18;101868.44;;;-0.58;nan
54262;BME280;40174;52.364;6.452;2023-04-27T02:58:45;101868.41;;;-0.56;nan
54262;BME280;40174;52.364;6.452;2023-04-27T03:01:13;101865.78;;;-0.56;nan
54262;BME280;40174;52.364;6.452;2023-04-27T03:03:44;101867.53;;;-0.55;nan
54262;BME280;40174;52.364;6.452;2023-04-27T03:06:10;101871.06;;;-0.59;nan
54262;BME280;40174;52.364;6.452;2023-04-27T03:08:38;101858.16;;;-0.64;nan
54262;BME280;40174;52.364;6.452;2023-04-27T03:11:05;101854.63;;;-0.61;nan
54262;BME280;40174;52.364;6.452;2023-04-27T03:13:34;101855.50;;;-0.61;nan
54262;BME280;40174;52.364;6.452;2023-04-27T03:16:07;101863.25;;;-0.59;nan
54262;BME280;40174;52.364;6.452;2023-04-27T03:18:34;101850.38;;;-0.64;nan
54262;BME280;40174;52.364;6.452;2023-04-27T03:21:05;101855.56;;;-0.66;nan
54262;BME280;40174;52.364;6.452;2023-04-27T03:23:32;101848.72;;;-0.70;nan
54262;BME280;40174;52.364;6.452;2023-04-27T03:26:04;101859.97;;;-0.69;nan
54262;BME280;40174;52.364;6.452;2023-04-27T03:28:30;101863.44;;;-0.69;nan
54262;BME280;40174;52.364;6.452;2023-04-27T03:30:58;101855.75;;;-0.76;nan
54262;BME280;40174;52.364;6.452;2023-04-27T03:33:25;101862.59;;;-0.72;nan
54262;BME280;40174;52.364;6.452;2023-04-27T03:35:56;101861.75;;;-0.73;nan
54262;BME280;40174;52.364;6.452;2023-04-27T03:38:23;101858.25;;;-0.70;nan
54262;BME280;40174;52.364;6.452;2023-04-27T03:40:50;101862.50;;;-0.65;nan
54262;BME280;40174;52.364;6.452;2023-04-27T03:43:19;101857.38;;;-0.69;nan
54262;BME280;40174;52.364;6.452;2023-04-27T03:45:46;101856.56;;;-0.71;nan
54262;BME280;40174;52.364;6.452;2023-04-27T03:48:13;101860.06;;;-0.75;nan
54262;BME280;40174;52.364;6.452;2023-04-27T03:50:40;101861.78;;;-0.74;nan
54262;BME280;40174;52.364;6.452;2023-04-27T03:53:07;101860.13;;;-0.78;nan
54262;BME280;40174;52.364;6.452;2023-04-27T03:55:36;101857.56;;;-0.81;nan
54262;BME280;40174;52.364;6.452;2023-04-27T03:58:03;101860.16;;;-0.80;nan
54262;BME280;40174;52.364;6.452;2023-04-27T04:00:32;101867.09;;;-0.80;nan
54262;BME280;40174;52.364;6.452;2023-04-27T04:02:58;101858.41;;;-0.78;nan
54262;BME280;40174;52.364;6.452;2023-04-27T04:05:26;101860.16;;;-0.80;nan
54262;BME280;40174;52.364;6.452;2023-04-27T04:07:53;101863.59;;;-0.78;nan
54262;BME280;40174;52.364;6.452;2023-04-27T04:10:21;101858.56;;;-0.89;nan
54262;BME280;40174;52.364;6.452;2023-04-27T04:12:49;101861.22;;;-0.92;nan
54262;BME280;40174;52.364;6.452;2023-04-27T04:15:16;101861.25;;;-0.95;nan
54262;BME280;40174;52.364;6.452;2023-04-27T04:17:45;101862.16;;;-0.96;nan
54262;BME280;40174;52.364;6.452;2023-04-27T04:20:13;101867.41;;;-1.00;nan
54262;BME280;40174;52.364;6.452;2023-04-27T04:22:40;101868.31;;;-1.03;nan
54262;BME280;40174;52.364;6.452;2023-04-27T04:25:07;101875.22;;;-1.02;nan
54262;BME280;40174;52.364;6.452;2023-04-27T04:27:34;101875.19;;;-1.00;nan
54262;BME280;40174;52.364;6.452;2023-04-27T04:30:02;101879.50;;;-0.99;nan
54262;BME280;40174;52.364;6.452;2023-04-27T04:32:31;101889.84;;;-0.98;nan
54262;BME280;40174;52.364;6.452;2023-04-27T04:34:59;101882.06;;;-0.96;nan
54262;BME280;40174;52.364;6.452;2023-04-27T04:37:27;101886.44;;;-1.00;nan
54262;BME280;40174;52.364;6.452;2023-04-27T04:39:55;101896.81;;;-1.00;nan
54262;BME280;40174;52.364;6.452;2023-04-27T04:42:23;101879.56;;;-1.04;nan
54262;BME280;40174;52.364;6.452;2023-04-27T04:44:50;101883.84;;;-1.01;nan
54262;BME280;40174;52.364;6.452;2023-04-27T04:47:17;101892.44;;;-0.98;nan
54262;BME280;40174;52.364;6.452;2023-04-27T04:49:45;101888.97;;;-0.97;nan
54262;BME280;40174;52.364;6.452;2023-04-27T04:52:13;101888.94;;;-0.94;nan
54262;BME280;40174;52.364;6.452;2023-04-27T04:54:39;101893.25;;;-0.94;nan
54262;BME280;40174;52.364;6.452;2023-04-27T04:57:06;101893.16;;;-0.88;nan
54262;BME280;40174;52.364;6.452;2023-04-27T04:59:33;101893.19;;;-0.90;nan
54262;BME280;40174;52.364;6.452;2023-04-27T05:01:59;101898.34;;;-0.88;nan
54262;BME280;40174;52.364;6.452;2023-04-27T05:04:26;101896.56;;;-0.85;nan
54262;BME280;40174;52.364;6.452;2023-04-27T05:06:53;101889.56;;;-0.81;nan
54262;BME280;40174;52.364;6.452;2023-04-27T05:09:21;101893.81;;;-0.75;nan
54262;BME280;40174;52.364;6.452;2023-04-27T05:11:47;101904.13;;;-0.71;nan
54262;BME280;40174;52.364;6.452;2023-04-27T05:14:14;101890.25;;;-0.70;nan
54262;BME280;40174;52.364;6.452;2023-04-27T05:16:40;101896.22;;;-0.63;nan
54262;BME280;40174;52.364;6.452;2023-04-27T05:19:07;101890.13;;;-0.60;nan
54262;BME280;40174;52.364;6.452;2023-04-27T05:21:34;101889.16;;;-0.56;nan
54262;BME280;40174;52.364;6.452;2023-04-27T05:24:00;101891.75;;;-0.55;nan
54262;BME280;40174;52.364;6.452;2023-04-27T05:26:28;101897.69;;;-0.47;nan
54262;BME280;40174;52.364;6.452;2023-04-27T05:28:55;101899.38;;;-0.44;nan
54262;BME280;40174;52.364;6.452;2023-04-27T05:31:21;101906.19;;;-0.38;nan
54262;BME280;40174;52.364;6.452;2023-04-27T05:33:48;101919.09;;;-0.34;nan
54262;BME280;40174;52.364;6.452;2023-04-27T05:36:15;101908.66;;;-0.31;nan
54262;BME280;40174;52.364;6.452;2023-04-27T05:38:41;101918.88;;;-0.20;nan
54262;BME280;40174;52.364;6.452;2023-04-27T05:41:08;101911.00;;;-0.15;nan
54262;BME280;40174;52.364;6.452;2023-04-27T05:43:36;101920.41;;;-0.11;nan
54262;BME280;40174;52.364;6.452;2023-04-27T05:46:03;101924.66;;;-0.06;nan
54262;BME280;40174;52.364;6.452;2023-04-27T05:48:30;101913.31;;;0.00;nan
54262;BME280;40174;52.364;6.452;2023-04-27T05:51:00;101922.69;;;0.07;nan
54262;BME280;40174;52.364;6.452;2023-04-27T05:53:27;101914.72;;;0.15;nan
54262;BME280;40174;52.364;6.452;2023-04-27T05:55:53;101931.91;;;0.24;nan
54262;BME280;40174;52.364;6.452;2023-04-27T05:58:20;101938.69;;;0.31;nan
54262;BME280;40174;52.364;6.452;2023-04-27T06:00:48;101932.47;;;0.38;nan
54262;BME280;40174;52.364;6.452;2023-04-27T06:03:15;101932.34;;;0.46;nan
54262;BME280;40174;52.364;6.452;2023-04-27T06:05:42;101939.91;;;0.56;nan
54262;BME280;40174;52.364;6.452;2023-04-27T06:08:08;101943.16;;;0.68;nan
54262;BME280;40174;52.364;6.452;2023-04-27T06:10:35;101941.00;;;0.85;nan
54262;BME280;40174;52.364;6.452;2023-04-27T06:13:02;101944.28;;;0.95;nan
54262;BME280;40174;52.364;6.452;2023-04-27T06:15:28;101939.72;;;1.04;nan
54262;BME280;40174;52.364;6.452;2023-04-27T06:17:56;101941.06;;;1.21;nan
54262;BME280;40174;52.364;6.452;2023-04-27T06:20:23;101933.84;;;1.32;nan
54262;BME280;40174;52.364;6.452;2023-04-27T06:22:50;101926.84;;;1.36;nan
54262;BME280;40174;52.364;6.452;2023-04-27T06:25:16;101928.22;;;1.51;nan
54262;BME280;40174;52.364;6.452;2023-04-27T06:27:43;101936.56;;;1.63;nan
54262;BME280;40174;52.364;6.452;2023-04-27T06:30:10;101926.81;;;1.72;nan
54262;BME280;40174;52.364;6.452;2023-04-27T06:32:37;101928.31;;;1.80;nan
54262;BME280;40174;52.364;6.452;2023-04-27T06:35:05;101943.50;;;1.97;nan
54262;BME280;40174;52.364;6.452;2023-04-27T06:37:32;101945.03;;;2.06;nan
54262;BME280;40174;52.364;6.452;2023-04-27T06:39:59;101940.34;;;2.19;nan
54262;BME280;40174;52.364;6.452;2023-04-27T06:42:25;101939.91;;;2.34;nan
54262;BME280;40174;52.364;6.452;2023-04-27T06:44:53;101948.94;;;2.54;nan
54262;BME280;40174;52.364;6.452;2023-04-27T06:47:20;101940.63;;;2.69;nan
54262;BME280;40174;52.364;6.452;2023-04-27T06:49:46;101940.47;;;2.75;nan
54262;BME280;40174;52.364;6.452;2023-04-27T06:52:14;101944.50;;;2.85;nan
54262;BME280;40174;52.364;6.452;2023-04-27T06:54:41;101941.59;;;2.96;nan
54262;BME280;40174;52.364;6.452;2023-04-27T06:57:08;101940.34;;;3.08;nan
54262;BME280;40174;52.364;6.452;2023-04-27T06:59:35;101942.75;;;3.14;nan
54262;BME280;40174;52.364;6.452;2023-04-27T07:02:01;101945.66;;;3.31;nan
54262;BME280;40174;52.364;6.452;2023-04-27T07:04:28;101945.88;;;3.52;nan
54262;BME280;40174;52.364;6.452;2023-04-27T07:06:55;101940.13;;;3.67;nan
54262;BME280;40174;52.364;6.452;2023-04-27T07:09:23;101946.91;;;3.74;nan
54262;BME280;40174;52.364;6.452;2023-04-27T07:11:49;101951.69;;;3.87;nan
54262;BME280;40174;52.364;6.452;2023-04-27T07:14:16;101948.56;;;4.02;nan
54262;BME280;40174;52.364;6.452;2023-04-27T07:16:42;101938.56;;;4.13;nan
54262;BME280;40174;52.364;6.452;2023-04-27T07:19:09;101949.44;;;4.26;nan
54262;BME280;40174;52.364;6.452;2023-04-27T07:21:36;101932.47;;;4.36;nan
54262;BME280;40174;52.364;6.452;2023-04-27T07:24:02;101953.38;;;4.62;nan
54262;BME280;40174;52.364;6.452;2023-04-27T07:26:30;101942.63;;;4.69;nan
54262;BME280;40174;52.364;6.452;2023-04-27T07:28:57;101948.97;;;4.86;nan
54262;BME280;40174;52.364;6.452;2023-04-27T07:31:23;101938.41;;;4.89;nan
54262;BME280;40174;52.364;6.452;2023-04-27T07:33:50;101950.22;;;4.99;nan
54262;BME280;40174;52.364;6.452;2023-04-27T07:36:17;101943.72;;;5.09;nan
54262;BME280;40174;52.364;6.452;2023-04-27T07:38:44;101936.94;;;5.26;nan
54262;BME280;40174;52.364;6.452;2023-04-27T07:41:10;101948.81;;;5.34;nan
54262;BME280;40174;52.364;6.452;2023-04-27T07:43:40;101948.91;;;5.53;nan
54262;BME280;40174;52.364;6.452;2023-04-27T07:46:06;101948.28;;;5.69;nan
54262;BME280;40174;52.364;6.452;2023-04-27T07:48:34;101949.47;;;5.82;nan
54262;BME280;40174;52.364;6.452;2023-04-27T07:51:00;101942.97;;;5.91;nan
54262;BME280;40174;52.364;6.452;2023-04-27T07:53:27;101944.44;;;5.98;nan
54262;BME280;40174;52.364;6.452;2023-04-27T07:55:54;101943.97;;;6.09;nan
54262;BME280;40174;52.364;6.452;2023-04-27T07:58:20;101951.38;;;6.19;nan
54262;BME280;40174;52.364;6.452;2023-04-27T08:00:48;101951.34;;;6.40;nan
54262;BME280;40174;52.364;6.452;2023-04-27T08:03:15;101954.59;;;6.45;nan
54262;BME280;40174;52.364;6.452;2023-04-27T08:05:41;101950.66;;;6.55;nan
54262;BME280;40174;52.364;6.452;2023-04-27T08:08:08;101949.44;;;6.62;nan
54262;BME280;40174;52.364;6.452;2023-04-27T08:10:34;101953.00;;;6.80;nan
54262;BME280;40174;52.364;6.452;2023-04-27T08:13:02;101961.66;;;6.82;nan
54262;BME280;40174;52.364;6.452;2023-04-27T08:15:29;101957.97;;;6.86;nan
54262;BME280;40174;52.364;6.452;2023-04-27T08:17:57;101964.50;;;6.97;nan
54262;BME280;40174;52.364;6.452;2023-04-27T08:20:23;101959.19;;;6.98;nan
54262;BME280;40174;52.364;6.452;2023-04-27T08:22:50;101957.50;;;7.15;nan
54262;BME280;40174;52.364;6.452;2023-04-27T08:25:17;101966.28;;;7.33;nan
54262;BME280;40174;52.364;6.452;2023-04-27T08:27:44;101951.94;;;7.57;nan
54262;BME280;40174;52.364;6.452;2023-04-27T08:30:11;101961.75;;;7.71;nan
54262;BME280;40174;52.364;6.452;2023-04-27T08:32:37;101951.41;;;7.68;nan
54262;BME280;40174;52.364;6.452;2023-04-27T08:35:06;101949.44;;;7.89;nan
54262;BME280;40174;52.364;6.452;2023-04-27T08:37:32;101957.75;;;7.99;nan
54262;BME280;40174;52.364;6.452;2023-04-27T08:39:59;101961.28;;;8.15;nan
54262;BME280;40174;52.364;6.452;2023-04-27T08:42:26;101958.34;;;8.21;nan
54262;BME280;40174;52.364;6.452;2023-04-27T08:44:54;101963.25;;;8.45;nan
54262;BME280;40174;52.364;6.452;2023-04-27T08:47:21;101967.56;;;8.63;nan
54262;BME280;40174;52.364;6.452;2023-04-27T08:49:48;101961.28;;;8.66;nan
54262;BME280;40174;52.364;6.452;2023-04-27T08:52:16;63271.00;;;-146.30;100.00
54262;BME280;40174;52.364;6.452;2023-04-27T08:54:42;63271.00;;;-146.30;100.00
54262;BME280;40174;52.364;6.452;2023-04-27T08:57:10;63271.00;;;-146.30;100.00
54262;BME280;40174;52.364;6.452;2023-04-27T08:59:37;63271.00;;;-146.30;100.00
54262;BME280;40174;52.364;6.452;2023-04-27T09:02:04;63271.00;;;-146.30;100.00
54262;BME280;40174;52.364;6.452;2023-04-27T09:04:37;63271.00;;;-146.30;100.00
54262;BME280;40174;52.364;6.452;2023-04-27T09:07:11;63271.00;;;-146.30;100.00
54262;BME280;40174;52.364;6.452;2023-04-27T09:09:39;63271.00;;;-146.30;100.00
54262;BME280;40174;52.364;6.452;2023-04-27T09:12:13;63271.00;;;-146.30;100.00
54262;BME280;40174;52.364;6.452;2023-04-27T09:14:40;63271.00;;;-146.30;100.00
54262;BME280;40174;52.364;6.452;2023-04-27T09:17:07;63271.00;;;-146.30;100.00
54262;BME280;40174;52.364;6.452;2023-04-27T09:19:33;63271.00;;;-146.30;100.00
54262;BME280;40174;52.364;6.452;2023-04-27T09:22:05;63271.00;;;-146.30;100.00
54262;BME280;40174;52.364;6.452;2023-04-27T09:24:32;63271.00;;;-146.30;100.00
54262;BME280;40174;52.364;6.452;2023-04-27T09:27:00;63271.00;;;-146.30;100.00
54262;BME280;40174;52.364;6.452;2023-04-27T09:29:35;63271.00;;;-146.30;100.00
54262;BME280;40174;52.364;6.452;2023-04-27T09:32:13;63271.00;;;-146.30;100.00
54262;BME280;40174;52.364;6.452;2023-04-27T09:34:41;63271.00;;;-146.30;100.00
54262;BME280;40174;52.364;6.452;2023-04-27T09:37:08;63271.00;;;-146.30;100.00
54262;BME280;40174;52.364;6.452;2023-04-27T09:39:35;63271.00;;;-146.30;100.00
54262;BME280;40174;52.364;6.452;2023-04-27T09:42:04;63271.00;;;-146.30;100.00
54262;BME280;40174;52.364;6.452;2023-04-27T09:44:31;63271.00;;;-146.30;100.00
54262;BME280;40174;52.364;6.452;2023-04-27T09:46:59;63271.00;;;-146.30;100.00
54262;BME280;40174;52.364;6.452;2023-04-27T09:49:27;63271.00;;;-146.30;100.00
54262;BME280;40174;52.364;6.452;2023-04-27T09:51:55;63271.00;;;-146.30;100.00
54262;BME280;40174;52.364;6.452;2023-04-27T09:54:25;63271.00;;;-146.30;100.00
54262;BME280;40174;52.364;6.452;2023-04-27T09:56:59;63271.00;;;-146.30;100.00
54262;BME280;40174;52.364;6.452;2023-04-27T09:59:45;63271.00;;;-146.30;100.00
54262;BME280;40174;52.364;6.452;2023-04-27T10:02:15;63271.00;;;-146.30;100.00
54262;BME280;40174;52.364;6.452;2023-04-27T10:05:01;63271.00;;;-146.30;100.00
54262;BME280;40174;52.364;6.452;2023-04-27T10:07:34;63271.00;;;-146.30;100.00
54262;BME280;40174;52.364;6.452;2023-04-27T10:10:02;63271.00;;;-146.30;100.00
54262;BME280;40174;52.364;6.452;2023-04-27T10:12:32;63271.00;;;-146.30;100.00
54262;BME280;40174;52.364;6.452;2023-04-27T10:15:12;63271.00;;;-146.30;100.00
54262;BME280;40174;52.364;6.452;2023-04-27T10:17:46;63271.00;;;-146.30;100.00
54262;BME280;40174;52.364;6.452;2023-04-27T10:20:13;63271.00;;;-146.30;100.00
54262;BME280;40174;52.364;6.452;2023-04-27T10:22:41;63271.00;;;-146.30;100.00
54262;BME280;40174;52.364;6.452;2023-04-27T10:25:15;63271.00;;;-146.30;100.00
54262;BME280;40174;52.364;6.452;2023-04-27T10:27:43;63271.00;;;-146.30;100.00
54262;BME280;40174;52.364;6.452;2023-04-27T10:30:17;63271.00;;;-146.30;100.00
54262;BME280;40174;52.364;6.452;2023-04-27T10:32:52;63271.00;;;-146.30;100.00
54262;BME280;40174;52.364;6.452;2023-04-27T10:35:20;63271.00;;;-146.30;100.00
54262;BME280;40174;52.364;6.452;2023-04-27T10:37:47;63271.00;;;-146.30;100.00
54262;BME280;40174;52.364;6.452;2023-04-27T10:40:14;63271.00;;;-146.30;100.00
54262;BME280;40174;52.364;6.452;2023-04-27T10:42:43;63271.00;;;-146.30;100.00
54262;BME280;40174;52.364;6.452;2023-04-27T10:45:11;63271.00;;;-146.30;100.00
54262;BME280;40174;52.364;6.452;2023-04-27T10:47:40;63271.00;;;-146.30;100.00
54262;BME280;40174;52.364;6.452;2023-04-27T10:50:08;63271.00;;;-146.30;100.00
54262;BME280;40174;52.364;6.452;2023-04-27T10:52:39;63271.00;;;-146.30;100.00
54262;BME280;40174;52.364;6.452;2023-04-27T10:55:14;63271.00;;;-146.30;100.00
54262;BME280;40174;52.364;6.452;2023-04-27T10:57:45;63271.00;;;-146.30;100.00
54262;BME280;40174;52.364;6.452;2023-04-27T11:00:14;63271.00;;;-146.30;100.00
54262;BME280;40174;52.364;6.452;2023-04-27T11:02:43;63271.00;;;-146.30;100.00
54262;BME280;40174;52.364;6.452;2023-04-27T11:05:16;63271.00;;;-146.30;100.00
54262;BME280;40174;52.364;6.452;2023-04-27T11:07:43;63271.00;;;-146.30;100.00
54262;BME280;40174;52.364;6.452;2023-04-27T11:10:14;63271.00;;;-146.30;100.00
54262;BME280;40174;52.364;6.452;2023-04-27T11:12:41;63271.00;;;-146.30;100.00
54262;BME280;40174;52.364;6.452;2023-04-27T11:15:08;63271.00;;;-146.30;100.00
54262;BME280;40174;52.364;6.452;2023-04-27T11:17:35;63271.00;;;-146.30;100.00
54262;BME280;40174;52.364;6.452;2023-04-27T11:20:03;63271.00;;;-146.30;100.00
54262;BME280;40174;52.364;6.452;2023-04-27T11:22:31;63271.00;;;-146.30;100.00
54262;BME280;40174;52.364;6.452;2023-04-27T11:24:58;63271.00;;;-146.30;100.00
54262;BME280;40174;52.364;6.452;2023-04-27T11:27:35;63271.00;;;-146.30;100.00
54262;BME280;40174;52.364;6.452;2023-04-27T11:30:02;63271.00;;;-146.30;100.00
54262;BME280;40174;52.364;6.452;2023-04-27T11:32:29;63271.00;;;-146.30;100.00
54262;BME280;40174;52.364;6.452;2023-04-27T11:34:56;63271.00;;;-146.30;100.00
54262;BME280;40174;52.364;6.452;2023-04-27T11:37:25;63271.00;;;-146.30;100.00
54262;BME280;40174;52.364;6.452;2023-04-27T11:39:53;63271.00;;;-146.30;100.00
54262;BME280;40174;52.364;6.452;2023-04-27T11:42:21;63271.00;;;-146.30;100.00
54262;BME280;40174;52.364;6.452;2023-04-27T11:44:51;63271.00;;;-146.30;100.00
54262;BME280;40174;52.364;6.452;2023-04-27T11:47:17;63271.00;;;-146.30;100.00
54262;BME280;40174;52.364;6.452;2023-04-27T11:49:46;63271.00;;;-146.30;100.00
54262;BME280;40174;52.364;6.452;2023-04-27T11:52:12;63271.00;;;-146.30;100.00
54262;BME280;40174;52.364;6.452;2023-04-27T11:54:46;63271.00;;;-146.30;100.00
54262;BME280;40174;52.364;6.452;2023-04-27T11:57:12;63271.00;;;-146.30;100.00
54262;BME280;40174;52.364;6.452;2023-04-27T11:59:39;63271.00;;;-146.30;100.00
54262;BME280;40174;52.364;6.452;2023-04-27T12:02:06;63271.00;;;-146.30;100.00
54262;BME280;40174;52.364;6.452;2023-04-27T12:04:32;63271.00;;;-146.30;100.00
54262;BME280;40174;52.364;6.452;2023-04-27T12:07:00;63271.00;;;-146.30;100.00
54262;BME280;40174;52.364;6.452;2023-04-27T12:09:26;63271.00;;;-146.30;100.00
54262;BME280;40174;52.364;6.452;2023-04-27T12:11:55;63271.00;;;-146.30;100.00
54262;BME280;40174;52.364;6.452;2023-04-27T12:14:21;63271.00;;;-146.30;100.00
54262;BME280;40174;52.364;6.452;2023-04-27T12:16:49;63271.00;;;-146.30;100.00
54262;BME280;40174;52.364;6.452;2023-04-27T12:19:16;63271.00;;;-146.30;100.00
54262;BME280;40174;52.364;6.452;2023-04-27T12:21:42;63271.00;;;-146.30;100.00
54262;BME280;40174;52.364;6.452;2023-04-27T12:24:09;63271.00;;;-146.30;100.00
54262;BME280;40174;52.364;6.452;2023-04-27T12:26:36;63271.00;;;-146.30;100.00
54262;BME280;40174;52.364;6.452;2023-04-27T12:29:04;63271.00;;;-146.30;100.00
54262;BME280;40174;52.364;6.452;2023-04-27T12:31:31;63271.00;;;-146.30;100.00
54262;BME280;40174;52.364;6.452;2023-04-27T12:33:58;63271.00;;;-146.30;100.00
54262;BME280;40174;52.364;6.452;2023-04-27T12:36:24;63271.00;;;-146.30;100.00
54262;BME280;40174;52.364;6.452;2023-04-27T12:38:52;63271.00;;;-146.30;100.00
54262;BME280;40174;52.364;6.452;2023-04-27T12:41:18;63271.00;;;-146.30;100.00
54262;BME280;40174;52.364;6.452;2023-04-27T12:43:45;63271.00;;;-146.30;100.00
54262;BME280;40174;52.364;6.452;2023-04-27T12:46:14;63271.00;;;-146.30;100.00
54262;BME280;40174;52.364;6.452;2023-04-27T12:48:40;63271.00;;;-146.30;100.00
54262;BME280;40174;52.364;6.452;2023-04-27T12:51:07;63271.00;;;-146.30;100.00
54262;BME280;40174;52.364;6.452;2023-04-27T12:53:33;63271.00;;;-146.30;100.00
54262;BME280;40174;52.364;6.452;2023-04-27T12:56:01;63271.00;;;-146.30;100.00
54262;BME280;40174;52.364;6.452;2023-04-27T12:58:29;63271.00;;;-146.30;100.00
54262;BME280;40174;52.364;6.452;2023-04-27T13:00:56;63271.00;;;-146.30;100.00
54262;BME280;40174;52.364;6.452;2023-04-27T13:03:24;63271.00;;;-146.30;100.00